createdAt,value
2018-05-03T00:00:13.481Z,8.57
2018-05-03T00:02:40.959Z,7.97
2018-05-03T00:05:08.423Z,8.37
2018-05-03T00:07:35.903Z,7.60
2018-05-03T00:10:03.405Z,8.03
2018-05-03T00:12:30.927Z,8.80
2018-05-03T00:14:58.387Z,8.67
2018-05-03T00:17:25.882Z,8.70
2018-05-03T00:19:53.375Z,10.27
2018-05-03T00:22:20.853Z,9.20
2018-05-03T00:24:48.309Z,9.20
2018-05-03T00:27:15.800Z,9.03
2018-05-03T00:29:43.273Z,9.50
2018-05-03T00:32:10.778Z,10.90
2018-05-03T00:34:38.267Z,10.37
2018-05-03T00:37:06.755Z,10.43
2018-05-03T00:39:34.214Z,9.57
2018-05-03T00:42:02.716Z,10.80
2018-05-03T00:44:30.199Z,11.23
2018-05-03T00:46:57.689Z,11.87
2018-05-03T00:49:25.155Z,10.40
2018-05-03T00:51:52.647Z,11.37
2018-05-03T00:54:32.004Z,12.37
2018-05-03T00:56:59.499Z,12.00
2018-05-03T00:59:26.961Z,13.50
2018-05-03T01:01:54.437Z,13.00
2018-05-03T01:04:21.921Z,12.87
2018-05-03T01:06:49.386Z,13.33
2018-05-03T01:09:16.884Z,12.50
2018-05-03T01:11:44.355Z,12.80
2018-05-03T01:14:11.859Z,13.97
2018-05-03T01:16:39.331Z,13.53
2018-05-03T01:19:06.818Z,13.70
2018-05-03T01:21:34.282Z,13.50
2018-05-03T01:24:01.774Z,12.97
2018-05-03T01:26:29.237Z,13.27
2018-05-03T01:28:56.725Z,13.00
2018-05-03T01:31:24.190Z,12.80
2018-05-03T01:33:51.706Z,13.73
2018-05-03T01:36:26.884Z,14.17
2018-05-03T01:38:54.386Z,13.47
2018-05-03T01:41:21.854Z,13.33
2018-05-03T01:43:49.338Z,14.17
2018-05-03T01:46:16.830Z,13.40
2018-05-03T01:48:44.325Z,14.73
2018-05-03T01:51:11.795Z,12.87
2018-05-03T01:53:39.346Z,13.77
2018-05-03T01:56:06.825Z,13.53
2018-05-03T01:58:34.310Z,14.00
2018-05-03T02:01:01.815Z,14.53
2018-05-03T02:03:29.321Z,15.93
2018-05-03T02:05:56.790Z,15.20
2018-05-03T02:08:24.286Z,15.13
2018-05-03T02:10:51.745Z,15.10
2018-05-03T02:13:19.242Z,14.80
2018-05-03T02:15:46.726Z,15.13
2018-05-03T02:18:14.198Z,16.20
2018-05-03T02:20:41.702Z,17.10
2018-05-03T02:23:09.170Z,14.97
2018-05-03T02:25:36.671Z,17.00
2018-05-03T02:28:04.152Z,16.70
2018-05-03T02:30:31.643Z,16.50
2018-05-03T02:32:59.102Z,18.13
2018-05-03T02:35:26.598Z,17.63
2018-05-03T02:37:54.064Z,17.10
2018-05-03T02:40:21.586Z,18.57
2018-05-03T02:42:49.050Z,18.17
2018-05-03T02:45:16.534Z,17.60
2018-05-03T02:47:44.001Z,19.53
2018-05-03T02:50:11.514Z,20.10
2018-05-03T02:52:39.034Z,18.80
2018-05-03T02:55:06.530Z,20.03
2018-05-03T02:57:51.545Z,18.47
2018-05-03T03:00:36.455Z,18.87
2018-05-03T03:03:21.626Z,19.13
2018-05-03T03:06:06.705Z,18.47
2018-05-03T03:12:21.475Z,19.60
2018-05-03T03:15:06.623Z,18.40
2018-05-03T03:17:51.687Z,19.73
2018-05-03T03:23:12.886Z,20.57
2018-05-03T03:29:33.170Z,19.30
2018-05-03T03:32:15.478Z,19.90
2018-05-03T03:34:42.950Z,21.03
2018-05-03T03:37:22.298Z,20.13
2018-05-03T03:40:07.287Z,19.97
2018-05-03T03:45:47.723Z,19.43
2018-05-03T03:48:15.229Z,19.03
2018-05-03T03:50:42.745Z,20.73
2018-05-03T03:53:10.235Z,20.40
2018-05-03T03:55:37.722Z,20.10
2018-05-03T03:58:05.214Z,20.80
2018-05-03T04:00:32.712Z,21.03
2018-05-03T04:03:00.187Z,21.10
2018-05-03T04:05:27.666Z,21.07
2018-05-03T04:07:55.161Z,20.67
2018-05-03T04:10:22.627Z,21.33
2018-05-03T04:12:50.321Z,21.80
2018-05-03T04:15:17.822Z,20.93
2018-05-03T04:17:57.185Z,21.33
2018-05-03T04:20:40.453Z,19.10
2018-05-03T04:23:27.914Z,19.80
2018-05-03T04:26:04.290Z,18.80
2018-05-03T04:28:31.756Z,18.90
2018-05-03T04:30:59.223Z,18.60
2018-05-03T04:33:26.710Z,19.33
2018-05-03T04:35:54.195Z,18.07
2018-05-03T04:38:21.687Z,17.97
2018-05-03T04:40:49.171Z,17.40
2018-05-03T04:43:16.702Z,17.63
2018-05-03T04:45:44.182Z,17.67
2018-05-03T04:48:11.858Z,18.27
2018-05-03T04:50:39.327Z,17.17
2018-05-03T04:53:06.822Z,16.93
2018-05-03T04:55:34.302Z,15.10
2018-05-03T04:58:01.824Z,16.23
2018-05-03T05:00:29.337Z,16.03
2018-05-03T05:02:56.838Z,15.07
2018-05-03T05:05:24.302Z,15.07
2018-05-03T05:07:51.790Z,15.87
2018-05-03T05:10:19.254Z,14.33
2018-05-03T05:12:46.742Z,13.53
2018-05-03T05:15:14.205Z,14.67
2018-05-03T05:17:41.726Z,13.70
2018-05-03T05:20:09.198Z,12.93
2018-05-03T05:22:36.695Z,13.03
2018-05-03T05:25:04.162Z,13.27
2018-05-03T05:27:31.688Z,11.97
2018-05-03T05:29:59.178Z,13.73
2018-05-03T05:32:26.650Z,12.93
2018-05-03T05:34:54.136Z,13.13
2018-05-03T05:37:21.626Z,12.67
2018-05-03T05:39:49.113Z,12.63
2018-05-03T05:42:16.573Z,12.30
2018-05-03T05:44:44.058Z,12.67
2018-05-03T05:47:11.523Z,13.00
2018-05-03T05:49:39.017Z,12.47
2018-05-03T05:52:06.513Z,12.20
2018-05-03T05:54:34.002Z,10.57
2018-05-03T05:57:01.499Z,12.63
2018-05-03T05:59:29.012Z,11.20
2018-05-03T06:01:56.490Z,11.47
2018-05-03T06:04:23.975Z,11.10
2018-05-03T06:06:51.475Z,11.27
2018-05-03T06:09:18.961Z,10.67
2018-05-03T06:11:46.427Z,11.27
2018-05-03T06:14:14.875Z,11.93
2018-05-03T06:16:42.364Z,10.57
2018-05-03T06:19:09.862Z,11.17
2018-05-03T06:21:37.334Z,10.47
2018-05-03T06:24:04.839Z,11.13
2018-05-03T06:26:32.311Z,10.90
2018-05-03T06:28:59.813Z,10.37
2018-05-03T06:31:27.274Z,10.40
2018-05-03T06:33:54.780Z,11.87
2018-05-03T06:36:22.249Z,11.53
2018-05-03T06:38:49.784Z,11.40
2018-05-03T06:41:17.255Z,11.77
2018-05-03T06:43:44.800Z,11.57
2018-05-03T06:46:12.234Z,11.93
2018-05-03T06:48:39.702Z,11.83
2018-05-03T06:51:07.194Z,11.90
2018-05-03T06:53:34.662Z,11.20
2018-05-03T06:56:02.166Z,10.97
2018-05-03T06:58:29.640Z,12.37
2018-05-03T07:00:57.138Z,12.00
2018-05-03T07:03:24.623Z,11.47
2018-05-03T07:05:52.110Z,12.27
2018-05-03T07:08:19.587Z,11.77
2018-05-03T07:10:48.917Z,11.73
2018-05-03T07:13:16.390Z,12.10
2018-05-03T07:15:43.879Z,13.30
2018-05-03T07:18:11.364Z,12.40
2018-05-03T07:20:39.826Z,11.97
2018-05-03T07:23:07.318Z,13.17
2018-05-03T07:25:34.813Z,11.80
2018-05-03T07:28:02.310Z,11.40
2018-05-03T07:30:31.806Z,13.07
2018-05-03T07:32:59.269Z,13.20
2018-05-03T07:35:26.754Z,12.07
2018-05-03T07:37:54.247Z,12.03
2018-05-03T07:40:21.729Z,12.30
2018-05-03T07:42:49.196Z,12.47
2018-05-03T07:45:16.686Z,12.10
2018-05-03T07:47:44.166Z,12.60
2018-05-03T07:50:11.647Z,12.73
2018-05-03T07:52:39.133Z,13.23
2018-05-03T07:55:06.603Z,11.20
2018-05-03T07:57:34.106Z,11.47
2018-05-03T08:00:01.584Z,12.80
2018-05-03T08:02:29.078Z,12.30
2018-05-03T08:04:56.551Z,12.30
2018-05-03T08:07:24.042Z,12.20
2018-05-03T08:09:51.502Z,12.30
2018-05-03T08:12:20.003Z,12.03
2018-05-03T08:14:47.471Z,12.37
2018-05-03T08:17:15.000Z,11.47
2018-05-03T08:19:42.567Z,12.17
2018-05-03T08:22:10.100Z,12.57
2018-05-03T08:24:37.571Z,12.17
2018-05-03T08:27:05.058Z,12.27
2018-05-03T08:29:32.551Z,12.37
2018-05-03T08:32:00.074Z,11.60
2018-05-03T08:34:27.552Z,12.27
2018-05-03T08:36:55.128Z,11.27
2018-05-03T08:39:22.631Z,11.50
2018-05-03T08:41:50.118Z,11.47
2018-05-03T08:44:17.590Z,12.17
2018-05-03T08:46:45.082Z,12.27
2018-05-03T08:49:12.554Z,11.47
2018-05-03T08:51:40.047Z,11.90
2018-05-03T08:54:07.539Z,11.73
2018-05-03T08:56:35.001Z,11.80
2018-05-03T08:59:02.514Z,11.27
2018-05-03T09:01:30.068Z,11.50
2018-05-03T09:03:57.534Z,12.07
2018-05-03T09:06:25.002Z,11.40
2018-05-03T09:08:52.514Z,12.40
2018-05-03T09:11:19.984Z,11.67
2018-05-03T09:13:47.471Z,11.80
2018-05-03T09:16:14.947Z,12.23
2018-05-03T09:18:42.438Z,12.93
2018-05-03T09:21:09.933Z,12.00
2018-05-03T09:23:37.426Z,12.10
2018-05-03T09:26:04.893Z,12.10
2018-05-03T09:28:32.381Z,12.40
2018-05-03T09:30:59.871Z,12.67
2018-05-03T09:33:27.366Z,11.73
2018-05-03T09:35:54.859Z,12.27
2018-05-03T09:38:22.350Z,12.50
2018-05-03T09:40:49.817Z,12.07
2018-05-03T09:43:17.326Z,11.23
2018-05-03T09:45:44.795Z,12.20
2018-05-03T09:48:12.312Z,12.03
2018-05-03T09:50:39.794Z,11.03
2018-05-03T09:53:07.286Z,12.40
2018-05-03T09:55:34.754Z,11.93
2018-05-03T09:58:02.251Z,12.03
2018-05-03T10:00:29.723Z,12.13
2018-05-03T10:02:57.199Z,12.37
2018-05-03T10:05:24.684Z,11.77
2018-05-03T10:07:52.178Z,12.27
2018-05-03T10:10:19.661Z,12.20
2018-05-03T10:12:47.130Z,12.67
2018-05-03T10:15:14.653Z,12.30
2018-05-03T10:17:42.118Z,11.60
2018-05-03T10:20:09.610Z,12.23
2018-05-03T10:22:37.180Z,12.63
2018-05-03T10:25:04.650Z,11.73
2018-05-03T10:27:32.171Z,13.60
2018-05-03T10:29:59.739Z,12.83
2018-05-03T10:32:27.153Z,12.83
2018-05-03T10:34:54.678Z,13.07
2018-05-03T10:37:22.146Z,13.07
2018-05-03T10:39:49.662Z,11.90
2018-05-03T10:42:18.083Z,11.73
2018-05-03T10:44:45.619Z,11.40
2018-05-03T10:47:13.106Z,11.27
2018-05-03T10:49:40.603Z,11.60
2018-05-03T10:52:08.066Z,11.20
2018-05-03T10:54:35.566Z,11.07
2018-05-03T10:57:03.043Z,11.43
2018-05-03T10:59:30.535Z,11.27
2018-05-03T11:01:57.998Z,12.07
2018-05-03T11:04:25.497Z,12.03
2018-05-03T11:06:52.971Z,12.13
2018-05-03T11:09:20.459Z,10.93
2018-05-03T11:11:47.930Z,12.53
2018-05-03T11:14:15.488Z,10.60
2018-05-03T11:16:43.043Z,12.07
2018-05-03T11:19:10.462Z,12.17
2018-05-03T11:21:37.951Z,11.47
2018-05-03T11:24:05.427Z,12.10
2018-05-03T11:26:32.910Z,11.53
2018-05-03T11:29:00.376Z,11.83
2018-05-03T11:31:27.920Z,11.50
2018-05-03T11:33:55.343Z,11.27
2018-05-03T11:36:24.821Z,11.90
2018-05-03T11:38:52.297Z,11.40
2018-05-03T11:41:20.758Z,10.73
2018-05-03T11:43:48.265Z,12.00
2018-05-03T11:46:15.809Z,12.00
2018-05-03T11:48:43.493Z,11.70
2018-05-03T11:51:10.970Z,11.10
2018-05-03T11:53:38.458Z,11.60
2018-05-03T11:56:05.946Z,11.77
2018-05-03T11:58:33.434Z,11.67
2018-05-03T12:01:00.927Z,12.43
2018-05-03T12:03:28.394Z,12.53
2018-05-03T12:05:55.981Z,11.43
2018-05-03T12:08:23.393Z,11.97
2018-05-03T12:10:50.884Z,11.70
2018-05-03T12:13:18.352Z,12.07
2018-05-03T12:15:45.843Z,12.03
2018-05-03T12:18:13.316Z,12.20
2018-05-03T12:20:40.806Z,12.10
2018-05-03T12:23:08.314Z,11.83
2018-05-03T12:25:35.794Z,11.50
2018-05-03T12:28:03.285Z,11.37
2018-05-03T12:30:30.749Z,10.73
2018-05-03T12:32:58.243Z,11.40
2018-05-03T12:35:25.726Z,12.03
2018-05-03T12:37:53.240Z,11.70
2018-05-03T12:40:20.719Z,12.30
2018-05-03T12:42:48.206Z,12.40
2018-05-03T12:45:15.707Z,11.00
2018-05-03T12:47:43.198Z,12.37
2018-05-03T12:50:10.671Z,11.03
2018-05-03T12:52:38.163Z,10.10
2018-05-03T12:55:05.630Z,10.30
2018-05-03T12:57:33.143Z,10.87
2018-05-03T13:00:00.615Z,10.20
2018-05-03T13:02:28.095Z,9.53
2018-05-03T13:04:55.581Z,10.50
2018-05-03T13:07:23.074Z,9.60
2018-05-03T13:09:50.539Z,9.53
2018-05-03T13:12:18.059Z,10.17
2018-05-03T13:14:45.528Z,10.20
2018-05-03T13:17:13.028Z,9.33
2018-05-03T13:19:40.500Z,8.97
2018-05-03T13:22:07.994Z,9.20
2018-05-03T13:24:35.450Z,8.80
2018-05-03T13:27:02.962Z,8.93
2018-05-03T13:29:30.499Z,8.80
2018-05-03T13:31:58.021Z,9.27
2018-05-03T13:34:25.534Z,8.90
2018-05-03T13:36:53.003Z,9.47
2018-05-03T13:39:20.466Z,9.13
2018-05-03T13:41:47.975Z,10.23
2018-05-03T13:44:15.449Z,8.40
2018-05-03T13:46:42.910Z,9.33
2018-05-03T13:49:10.397Z,9.30
2018-05-03T13:51:37.867Z,8.67
2018-05-03T13:54:05.354Z,9.10
2018-05-03T13:59:05.839Z,8.53
2018-05-03T14:01:33.324Z,8.90
2018-05-03T14:04:00.805Z,8.67
2018-05-03T14:06:28.273Z,8.93
2018-05-03T14:08:55.778Z,9.73
2018-05-03T14:11:23.241Z,8.33
2018-05-03T14:13:50.745Z,9.67
2018-05-03T14:16:18.239Z,9.17
2018-05-03T14:18:45.719Z,8.80
2018-05-03T14:21:13.189Z,8.90
2018-05-03T14:23:40.682Z,9.60
2018-05-03T14:26:08.158Z,9.50
2018-05-03T14:28:35.651Z,8.40
2018-05-03T14:31:03.129Z,9.63
2018-05-03T14:33:30.620Z,8.50
2018-05-03T14:35:58.105Z,8.90
2018-05-03T14:38:25.594Z,8.90
2018-05-03T14:40:54.040Z,8.97
2018-05-03T14:43:21.534Z,8.83
2018-05-03T14:45:49.104Z,8.37
2018-05-03T14:48:16.543Z,8.40
2018-05-03T14:50:44.018Z,8.23
2018-05-03T14:53:11.516Z,8.33
2018-05-03T14:55:38.998Z,7.67
2018-05-03T14:58:06.466Z,8.20
2018-05-03T15:00:33.951Z,7.30
2018-05-03T15:03:01.432Z,7.53
2018-05-03T15:05:28.946Z,8.03
2018-05-03T15:07:56.411Z,8.13
2018-05-03T15:10:23.901Z,7.80
2018-05-03T15:12:51.370Z,8.37
2018-05-03T15:15:19.782Z,7.73
2018-05-03T15:17:47.239Z,8.50
2018-05-03T15:20:14.762Z,7.47
2018-05-03T15:22:42.230Z,7.90
2018-05-03T15:25:09.711Z,7.63
2018-05-03T15:27:37.225Z,7.23
2018-05-03T15:30:04.706Z,7.20
2018-05-03T15:32:32.199Z,6.87
2018-05-03T15:34:59.801Z,7.37
2018-05-03T15:37:27.368Z,7.13
2018-05-03T15:39:54.859Z,7.67
2018-05-03T15:42:22.326Z,7.00
2018-05-03T15:44:49.835Z,7.03
2018-05-03T15:47:17.298Z,7.53
2018-05-03T15:49:44.787Z,7.60
2018-05-03T15:52:12.251Z,7.20
2018-05-03T15:54:39.761Z,6.23
2018-05-03T15:57:07.234Z,5.93
2018-05-03T15:59:34.709Z,7.03
2018-05-03T16:02:02.203Z,7.07
2018-05-03T16:04:29.866Z,6.87
2018-05-03T16:06:57.331Z,7.23
2018-05-03T16:09:24.826Z,6.40
2018-05-03T16:11:52.330Z,7.07
2018-05-03T16:14:19.826Z,6.93
2018-05-03T16:16:47.303Z,6.43
2018-05-03T16:19:14.818Z,6.07
2018-05-03T16:21:42.283Z,6.57
2018-05-03T16:24:10.737Z,7.20
2018-05-03T16:26:38.218Z,6.90
2018-05-03T16:29:05.670Z,6.97
2018-05-03T16:31:33.160Z,7.33
2018-05-03T16:34:00.635Z,6.70
2018-05-03T16:36:28.125Z,6.70
2018-05-03T16:38:55.586Z,7.30
2018-05-03T16:41:23.067Z,6.90
2018-05-03T16:43:50.526Z,7.00
2018-05-03T16:46:18.031Z,7.07
2018-05-03T16:48:45.527Z,7.50
2018-05-03T16:51:13.018Z,8.37
2018-05-03T16:53:40.481Z,8.37
2018-05-03T16:56:07.967Z,7.90
2018-05-03T16:58:35.433Z,7.67
2018-05-03T17:01:02.914Z,8.47
2018-05-03T17:03:30.374Z,8.13
2018-05-03T17:05:57.867Z,7.20
2018-05-03T17:08:25.325Z,7.73
2018-05-03T17:10:52.816Z,8.03
2018-05-03T17:13:20.301Z,7.97
2018-05-03T17:15:47.806Z,7.43
2018-05-03T17:18:15.282Z,7.30
2018-05-03T17:20:42.781Z,7.53
2018-05-03T17:23:10.238Z,7.63
2018-05-03T17:25:37.728Z,7.53
2018-05-03T17:28:05.200Z,7.90
2018-05-03T17:30:32.695Z,6.90
2018-05-03T17:33:00.174Z,8.97
2018-05-03T17:35:27.826Z,15.40
2018-05-03T17:37:55.414Z,7.30
2018-05-03T17:40:22.875Z,7.63
2018-05-03T17:42:50.374Z,8.00
2018-05-03T17:45:17.868Z,6.90
2018-05-03T17:47:45.349Z,7.63
2018-05-03T17:50:12.811Z,7.50
2018-05-03T17:52:40.297Z,8.10
2018-05-03T17:55:07.787Z,8.10
2018-05-03T17:57:35.271Z,7.90
2018-05-03T18:00:02.730Z,8.00
2018-05-03T18:02:30.222Z,8.03
2018-05-03T18:04:57.691Z,7.30
2018-05-03T18:07:25.170Z,8.03
2018-05-03T18:09:52.639Z,8.47
2018-05-03T18:12:20.133Z,7.83
2018-05-03T18:14:47.590Z,7.73
2018-05-03T18:17:15.073Z,7.00
2018-05-03T18:19:42.568Z,6.90
2018-05-03T18:22:10.058Z,6.87
2018-05-03T18:24:37.518Z,7.37
2018-05-03T18:27:05.004Z,5.90
2018-05-03T18:29:32.491Z,6.60
2018-05-03T18:31:59.985Z,6.73
2018-05-03T18:34:27.446Z,6.73
2018-05-03T18:36:54.907Z,6.43
2018-05-03T18:39:22.639Z,6.77
2018-05-03T18:41:51.121Z,6.57
2018-05-03T18:44:18.606Z,6.50
2018-05-03T18:46:46.063Z,6.33
2018-05-03T18:49:13.552Z,5.67
2018-05-03T18:51:41.010Z,6.00
2018-05-03T18:54:08.501Z,6.13
2018-05-03T18:56:35.962Z,5.60
2018-05-03T18:59:04.197Z,6.30
2018-05-03T19:01:31.654Z,5.50
2018-05-03T19:03:59.310Z,6.27
2018-05-03T19:06:26.723Z,5.80
2018-05-03T19:08:54.251Z,5.73
2018-05-03T19:11:21.710Z,5.73
2018-05-03T19:13:49.194Z,5.23
2018-05-03T19:16:16.653Z,5.47
2018-05-03T19:18:44.181Z,5.73
2018-05-03T19:21:11.639Z,5.27
2018-05-03T19:23:39.135Z,5.67
2018-05-03T19:26:06.598Z,5.43
2018-05-03T19:28:34.082Z,6.20
2018-05-03T19:31:01.558Z,5.77
2018-05-03T19:33:30.029Z,5.80
2018-05-03T19:35:57.495Z,5.47
2018-05-03T19:38:24.975Z,5.67
2018-05-03T19:40:52.451Z,6.20
2018-05-03T19:43:19.958Z,6.07
2018-05-03T19:45:47.419Z,5.83
2018-05-03T19:48:15.000Z,5.57
2018-05-03T19:50:42.483Z,5.33
2018-05-03T19:53:09.949Z,5.60
2018-05-03T19:55:37.426Z,5.77
2018-05-03T19:58:04.886Z,5.50
2018-05-03T20:00:32.494Z,5.50
2018-05-03T20:02:59.962Z,5.33
2018-05-03T20:05:27.473Z,5.47
2018-05-03T20:07:54.949Z,6.00
2018-05-03T20:10:22.426Z,5.27
2018-05-03T20:12:49.886Z,6.10
2018-05-03T20:15:17.436Z,5.60
2018-05-03T20:17:44.883Z,5.83
2018-05-03T20:20:12.367Z,5.70
2018-05-03T20:22:39.920Z,5.53
2018-05-03T20:25:07.422Z,5.43
2018-05-03T20:27:34.878Z,5.20
2018-05-03T20:30:02.394Z,5.23
2018-05-03T20:32:29.858Z,5.10
2018-05-03T20:34:57.354Z,4.93
2018-05-03T20:37:24.808Z,5.10
2018-05-03T20:39:52.287Z,5.83
2018-05-03T20:42:19.742Z,5.90
2018-05-03T20:44:47.222Z,5.50
2018-05-03T20:47:14.699Z,5.37
2018-05-03T20:49:42.191Z,5.73
2018-05-03T20:52:09.670Z,6.03
2018-05-03T20:54:37.127Z,6.00
2018-05-03T20:57:04.607Z,5.80
2018-05-03T20:59:32.080Z,6.30
2018-05-03T21:01:59.571Z,5.63
2018-05-03T21:04:27.030Z,5.30
2018-05-03T21:06:54.508Z,5.33
2018-05-03T21:09:21.966Z,5.33
2018-05-03T21:11:49.447Z,5.00
2018-05-03T21:14:16.902Z,5.70
2018-05-03T21:16:44.378Z,5.60
2018-05-03T21:19:11.843Z,5.70
2018-05-03T21:21:39.329Z,6.17
2018-05-03T21:24:06.958Z,5.63
2018-05-03T21:26:34.442Z,6.00
2018-05-03T21:29:01.985Z,5.20
2018-05-03T21:31:29.466Z,5.77
2018-05-03T21:33:56.922Z,5.53
2018-05-03T21:36:24.402Z,5.80
2018-05-03T21:38:51.862Z,6.37
2018-05-03T21:41:19.337Z,6.00
2018-05-03T21:43:46.800Z,6.30
2018-05-03T21:46:14.282Z,5.73
2018-05-03T21:48:41.733Z,5.70
2018-05-03T21:51:09.222Z,6.00
2018-05-03T21:53:36.701Z,5.17
2018-05-03T21:56:04.192Z,5.23
2018-05-03T21:58:31.645Z,5.87
2018-05-03T22:00:59.134Z,5.50
2018-05-03T22:03:26.592Z,5.67
2018-05-03T22:05:54.055Z,6.93
2018-05-03T22:08:21.536Z,6.00
2018-05-03T22:10:49.068Z,6.90
2018-05-03T22:13:16.564Z,6.93
2018-05-03T22:15:44.022Z,6.63
2018-05-03T22:18:11.497Z,6.50
2018-05-03T22:20:39.007Z,6.63
2018-05-03T22:23:06.545Z,6.53
2018-05-03T22:25:34.009Z,7.20
2018-05-03T22:28:01.509Z,6.80
2018-05-03T22:30:28.976Z,6.87
2018-05-03T22:32:56.460Z,7.63
2018-05-03T22:35:23.922Z,6.87
2018-05-03T22:37:51.406Z,7.10
2018-05-03T22:40:18.870Z,7.63
2018-05-03T22:42:46.435Z,6.93
2018-05-03T22:45:13.908Z,7.70
2018-05-03T22:47:41.393Z,7.40
2018-05-03T22:50:08.859Z,7.00
2018-05-03T22:52:36.337Z,7.90
2018-05-03T22:55:03.805Z,7.30
2018-05-03T22:57:31.285Z,7.40
2018-05-03T22:59:58.749Z,8.10
2018-05-03T23:02:26.232Z,6.83
2018-05-03T23:04:53.693Z,8.00
2018-05-03T23:07:21.199Z,8.30
2018-05-03T23:09:48.680Z,7.40
2018-05-03T23:12:16.223Z,8.20
2018-05-03T23:14:43.709Z,7.90
2018-05-03T23:17:11.164Z,7.40
2018-05-03T23:19:38.643Z,7.27
2018-05-03T23:22:06.104Z,7.33
2018-05-03T23:24:33.582Z,7.87
2018-05-03T23:27:01.048Z,7.90
2018-05-03T23:29:28.522Z,7.57
2018-05-03T23:31:55.984Z,7.23
2018-05-03T23:34:23.545Z,7.77
2018-05-03T23:36:50.938Z,8.00
2018-05-03T23:39:18.461Z,7.80
2018-05-03T23:41:45.922Z,7.67
2018-05-03T23:44:13.402Z,7.20
2018-05-03T23:46:40.858Z,7.97
2018-05-03T23:49:08.341Z,7.87
2018-05-03T23:51:35.814Z,7.77
2018-05-03T23:54:03.296Z,7.27
2018-05-03T23:56:30.776Z,8.47
2018-05-03T23:58:58.274Z,7.97
